createdAt,value
2023-03-04T00:00:50.273Z,8.35
2023-03-04T00:03:24.027Z,6.10
2023-03-04T00:05:53.778Z,8.55
2023-03-04T00:08:25.001Z,9.38
2023-03-04T00:10:54.748Z,7.20
2023-03-04T00:13:24.541Z,7.53
2023-03-04T00:15:55.140Z,7.55
2023-03-04T00:18:24.485Z,9.75
2023-03-04T00:20:54.775Z,6.65
2023-03-04T00:23:25.654Z,8.73
2023-03-04T00:25:55.668Z,7.60
2023-03-04T00:28:25.173Z,9.13
2023-03-04T00:30:54.845Z,6.68
2023-03-04T00:33:24.134Z,7.40
2023-03-04T00:35:54.554Z,7.78
2023-03-04T00:38:25.422Z,7.78
2023-03-04T00:40:55.403Z,7.70
2023-03-04T00:43:26.653Z,7.10
2023-03-04T00:45:56.623Z,6.32
2023-03-04T00:48:26.922Z,6.93
2023-03-04T00:50:56.596Z,7.65
2023-03-04T00:53:27.385Z,8.43
2023-03-04T00:55:57.129Z,6.78
2023-03-04T00:58:26.393Z,5.78
2023-03-04T01:00:56.651Z,6.47
2023-03-04T01:03:27.162Z,6.40
2023-03-04T01:05:56.874Z,6.60
2023-03-04T01:08:28.437Z,7.65
2023-03-04T01:10:58.305Z,5.80
2023-03-04T01:13:28.281Z,6.15
2023-03-04T01:15:59.576Z,6.57
2023-03-04T01:18:29.566Z,5.90
2023-03-04T01:20:59.798Z,6.68
2023-03-04T01:23:30.620Z,6.63
2023-03-04T01:26:00.522Z,6.68
2023-03-04T01:28:29.819Z,6.25
2023-03-04T01:30:59.574Z,5.72
2023-03-04T01:33:28.908Z,7.22
2023-03-04T01:35:58.650Z,5.95
2023-03-04T01:38:29.566Z,5.82
2023-03-04T01:41:00.096Z,6.85
2023-03-04T01:43:31.362Z,5.70
2023-03-04T01:46:01.373Z,6.57
2023-03-04T01:48:34.378Z,5.70
2023-03-04T01:51:04.362Z,5.38
2023-03-04T01:53:35.569Z,5.53
2023-03-04T01:56:14.265Z,5.20
2023-03-04T01:58:45.165Z,5.13
2023-03-04T02:01:16.370Z,4.82
2023-03-04T02:03:45.707Z,6.40
2023-03-04T02:06:15.717Z,4.80
2023-03-04T02:08:46.534Z,4.97
2023-03-04T02:11:16.219Z,5.40
2023-03-04T02:13:45.661Z,6.35
2023-03-04T02:16:15.623Z,5.55
2023-03-04T02:18:45.079Z,5.53
2023-03-04T02:21:20.498Z,4.50
2023-03-04T02:23:59.293Z,4.53
2023-03-04T02:26:32.472Z,3.88
2023-03-04T02:29:03.151Z,5.03
2023-03-04T02:34:06.085Z,4.20
2023-03-04T02:36:36.988Z,4.20
2023-03-04T02:39:09.604Z,5.03
2023-03-04T02:41:41.482Z,3.85
2023-03-04T02:44:19.476Z,3.58
2023-03-04T02:46:51.093Z,5.88
2023-03-04T02:49:21.947Z,4.65
2023-03-04T02:51:54.595Z,4.65
2023-03-04T02:54:25.335Z,4.28
2023-03-04T02:57:00.102Z,4.13
2023-03-04T02:59:29.713Z,4.35
2023-03-04T03:01:59.570Z,3.65
2023-03-04T03:04:29.714Z,5.03
2023-03-04T03:06:59.396Z,3.65
2023-03-04T03:09:28.746Z,3.60
2023-03-04T03:11:59.929Z,4.22
2023-03-04T03:14:29.249Z,3.17
2023-03-04T03:16:58.957Z,3.58
2023-03-04T03:19:29.031Z,4.00
2023-03-04T03:21:59.121Z,3.47
2023-03-04T03:24:28.657Z,3.08
2023-03-04T03:26:59.895Z,3.95
2023-03-04T03:31:59.360Z,2.90
2023-03-04T03:34:29.653Z,4.00
2023-03-04T03:36:59.492Z,3.40
2023-03-04T03:39:28.821Z,3.55
2023-03-04T03:42:00.289Z,4.40
2023-03-04T03:46:59.952Z,3.40
2023-03-04T03:49:29.307Z,3.95
2023-03-04T03:51:59.025Z,2.72
2023-03-04T03:54:28.431Z,4.05
2023-03-04T03:56:59.582Z,3.92
2023-03-04T03:59:28.952Z,3.45
2023-03-04T04:01:58.906Z,3.10
2023-03-04T04:04:28.456Z,3.65
2023-03-04T04:06:59.181Z,3.05
2023-03-04T04:09:29.033Z,3.20
2023-03-04T04:12:00.502Z,2.63
2023-03-04T04:14:29.837Z,3.78
2023-03-04T04:16:59.599Z,2.92
2023-03-04T04:19:29.191Z,2.67
2023-03-04T04:21:58.949Z,2.53
2023-03-04T04:24:28.625Z,3.00
2023-03-04T04:27:00.885Z,2.78
2023-03-04T04:29:30.265Z,3.35
2023-03-04T04:32:00.291Z,3.15
2023-03-04T04:34:29.661Z,3.03
2023-03-04T04:36:59.434Z,2.92
2023-03-04T04:39:28.839Z,2.25
2023-03-04T04:42:00.325Z,2.63
2023-03-04T04:44:29.865Z,2.92
2023-03-04T04:46:59.726Z,2.65
2023-03-04T04:49:29.648Z,3.22
2023-03-04T04:51:59.327Z,2.67
2023-03-04T04:54:28.727Z,4.57
2023-03-04T04:56:59.881Z,3.17
2023-03-04T04:59:29.387Z,3.50
2023-03-04T05:01:59.212Z,3.78
2023-03-04T05:04:29.009Z,3.38
2023-03-04T05:06:58.863Z,2.73
2023-03-04T05:09:28.142Z,2.38
2023-03-04T05:11:58.129Z,3.00
2023-03-04T05:14:29.402Z,2.97
2023-03-04T05:16:59.110Z,2.85
2023-03-04T05:19:28.464Z,2.80
2023-03-04T05:21:58.367Z,2.78
2023-03-04T05:24:27.962Z,2.30
2023-03-04T05:26:57.676Z,2.75
2023-03-04T05:29:28.541Z,3.33
2023-03-04T05:31:58.314Z,2.35
2023-03-04T05:34:27.688Z,2.50
2023-03-04T05:36:57.392Z,2.55
2023-03-04T05:39:26.908Z,2.25
2023-03-04T05:41:57.083Z,2.63
2023-03-04T05:44:27.890Z,2.20
2023-03-04T05:46:57.740Z,2.15
2023-03-04T05:49:27.131Z,2.30
2023-03-04T05:51:56.939Z,2.40
2023-03-04T05:54:26.242Z,2.40
2023-03-04T05:56:56.670Z,2.67
2023-03-04T05:59:27.733Z,2.43
2023-03-04T06:01:57.436Z,1.95
2023-03-04T06:04:27.183Z,1.90
2023-03-04T06:06:56.841Z,2.00
2023-03-04T06:09:26.293Z,2.58
2023-03-04T06:11:55.456Z,2.95
2023-03-04T06:14:25.242Z,2.40
2023-03-04T06:16:56.021Z,2.30
2023-03-04T06:19:25.666Z,2.08
2023-03-04T06:21:54.947Z,2.17
2023-03-04T06:24:24.906Z,1.92
2023-03-04T06:26:54.347Z,1.60
2023-03-04T06:29:24.783Z,2.22
2023-03-04T06:31:55.746Z,3.40
2023-03-04T06:34:25.870Z,2.50
2023-03-04T06:36:55.250Z,2.10
2023-03-04T06:39:24.976Z,2.00
2023-03-04T06:41:54.462Z,2.08
2023-03-04T06:44:24.190Z,1.88
2023-03-04T06:46:55.171Z,2.35
2023-03-04T06:49:24.993Z,2.67
2023-03-04T06:51:55.054Z,4.40
2023-03-04T06:54:24.946Z,2.42
2023-03-04T06:56:54.361Z,1.85
2023-03-04T06:59:25.518Z,2.70
2023-03-04T07:01:56.537Z,1.67
2023-03-04T07:04:26.356Z,2.88
2023-03-04T07:06:56.082Z,1.98
2023-03-04T07:09:25.952Z,1.63
2023-03-04T07:11:55.259Z,1.90
2023-03-04T07:14:25.166Z,1.80
2023-03-04T07:16:56.074Z,2.05
2023-03-04T07:19:26.025Z,2.08
2023-03-04T07:21:55.486Z,1.83
2023-03-04T07:24:25.260Z,2.30
2023-03-04T07:26:54.594Z,2.55
2023-03-04T07:29:24.241Z,1.75
2023-03-04T07:31:53.966Z,2.50
2023-03-04T07:34:25.238Z,1.83
2023-03-04T07:36:54.742Z,2.40
2023-03-04T07:39:24.617Z,1.83
2023-03-04T07:41:54.017Z,1.42
2023-03-04T07:44:24.884Z,1.70
2023-03-04T07:46:54.217Z,1.50
2023-03-04T07:49:25.366Z,1.63
2023-03-04T07:51:54.723Z,1.38
2023-03-04T07:54:24.355Z,1.45
2023-03-04T07:56:54.315Z,1.77
2023-03-04T07:59:24.270Z,1.70
2023-03-04T08:01:53.817Z,0.93
2023-03-04T08:04:25.531Z,0.88
2023-03-04T08:09:24.750Z,0.70
2023-03-04T08:11:54.393Z,1.65
2023-03-04T08:14:24.325Z,0.65
2023-03-04T08:16:53.645Z,0.55
2023-03-04T08:19:26.018Z,0.43
2023-03-04T08:21:55.681Z,0.68
2023-03-04T08:24:25.374Z,1.00
2023-03-04T08:26:55.041Z,2.15
2023-03-04T08:29:26.213Z,1.80
2023-03-04T08:31:56.666Z,1.80
2023-03-04T08:34:29.947Z,0.30
2023-03-04T08:36:59.927Z,1.02
2023-03-04T08:39:29.761Z,0.98
2023-03-04T08:41:59.267Z,0.50
2023-03-04T08:44:29.106Z,0.47
2023-03-04T08:46:58.406Z,0.73
2023-03-04T08:49:29.852Z,0.70
2023-03-04T08:54:28.697Z,1.50
2023-03-04T08:56:58.080Z,1.30
2023-03-04T08:59:27.888Z,0.85
2023-03-04T09:01:57.289Z,0.93
2023-03-04T09:04:27.202Z,0.75
2023-03-04T09:06:58.039Z,1.08
2023-03-04T09:09:27.998Z,0.90
2023-03-04T09:11:57.341Z,1.00
2023-03-04T09:14:27.049Z,0.47
2023-03-04T09:16:56.347Z,0.80
2023-03-04T09:19:26.193Z,0.65
2023-03-04T09:21:57.070Z,1.17
2023-03-04T09:24:27.194Z,1.20
2023-03-04T09:26:57.401Z,1.13
2023-03-04T09:29:27.240Z,0.80
2023-03-04T09:31:56.722Z,0.90
2023-03-04T09:34:26.480Z,0.73
2023-03-04T09:36:57.284Z,0.65
2023-03-04T09:39:27.130Z,0.80
2023-03-04T09:41:59.089Z,0.52
2023-03-04T09:44:32.591Z,0.93
2023-03-04T09:47:05.205Z,0.80
2023-03-04T09:49:35.019Z,1.05
2023-03-04T09:52:17.317Z,1.38
2023-03-04T09:55:08.213Z,1.40
2023-03-04T09:57:49.133Z,0.35
2023-03-04T10:00:22.862Z,0.40
2023-03-04T10:03:12.210Z,0.65
2023-03-04T10:05:45.826Z,0.20
2023-03-04T10:08:38.049Z,0.40
2023-03-04T10:11:15.144Z,0.50
2023-03-04T10:14:00.059Z,0.70
2023-03-04T10:16:36.583Z,1.05
2023-03-04T10:19:21.905Z,1.20
2023-03-04T10:21:53.309Z,0.90
2023-03-04T10:24:28.994Z,0.50
2023-03-04T10:27:05.216Z,0.75
2023-03-04T10:29:35.959Z,0.45
2023-03-04T10:32:06.285Z,0.60
2023-03-04T10:34:35.689Z,2.45
2023-03-04T10:37:09.080Z,1.05
2023-03-04T10:39:41.887Z,1.23
2023-03-04T10:42:29.125Z,0.40
2023-03-04T10:45:01.195Z,1.00
2023-03-04T10:47:32.166Z,0.47
2023-03-04T10:50:03.197Z,0.60
2023-03-04T10:52:34.552Z,1.48
2023-03-04T10:55:08.220Z,0.47
2023-03-04T10:57:40.224Z,0.55
2023-03-04T11:00:29.866Z,0.40
2023-03-04T11:03:30.236Z,0.80
2023-03-04T11:06:21.449Z,0.43
2023-03-04T11:08:58.664Z,0.43
2023-03-04T11:11:35.070Z,0.65
2023-03-04T11:14:16.540Z,0.77
2023-03-04T11:19:26.963Z,0.80
2023-03-04T11:21:58.272Z,0.70
2023-03-04T11:24:32.231Z,0.65
2023-03-04T11:27:07.415Z,0.60
2023-03-04T11:29:42.369Z,0.65
2023-03-04T11:32:15.332Z,0.52
2023-03-04T11:34:51.076Z,0.65
2023-03-04T11:37:29.688Z,0.68
2023-03-04T11:40:05.536Z,0.68
2023-03-04T11:42:42.386Z,0.30
2023-03-04T11:45:28.198Z,0.50
2023-03-04T11:48:07.353Z,0.47
2023-03-04T11:50:50.455Z,0.30
2023-03-04T11:53:38.455Z,0.50
2023-03-04T11:56:20.201Z,0.63
2023-03-04T11:59:33.313Z,0.50
2023-03-04T12:02:13.923Z,0.22
2023-03-04T12:05:06.502Z,0.40
2023-03-04T12:07:56.111Z,0.45
2023-03-04T12:10:31.837Z,0.28
2023-03-04T12:13:37.456Z,0.40
2023-03-04T12:16:21.138Z,0.28
2023-03-04T12:19:08.256Z,0.50
2023-03-04T12:22:11.391Z,0.60
2023-03-04T12:24:57.965Z,0.30
2023-03-04T12:27:35.430Z,0.88
2023-03-04T12:30:09.394Z,1.48
2023-03-04T12:32:47.714Z,0.50
2023-03-04T12:35:32.911Z,0.40
2023-03-04T12:38:27.709Z,0.60
2023-03-04T12:41:05.965Z,0.60
2023-03-04T12:43:43.678Z,0.40
2023-03-04T12:46:33.463Z,1.08
2023-03-04T12:49:27.085Z,0.25
2023-03-04T12:52:05.143Z,0.80
2023-03-04T12:54:38.841Z,0.47
2023-03-04T12:57:14.073Z,0.75
2023-03-04T12:59:51.567Z,0.80
2023-03-04T13:02:37.716Z,0.73
2023-03-04T13:05:25.832Z,0.20
2023-03-04T13:08:05.189Z,0.73
2023-03-04T13:10:35.508Z,0.40
2023-03-04T13:13:06.054Z,0.57
2023-03-04T13:15:38.053Z,0.30
2023-03-04T13:18:35.369Z,0.50
2023-03-04T13:21:21.920Z,0.50
2023-03-04T13:23:52.050Z,0.47
2023-03-04T13:26:25.808Z,0.70
2023-03-04T13:29:10.277Z,0.40
2023-03-04T13:32:01.329Z,1.08
2023-03-04T13:34:54.340Z,0.68
2023-03-04T13:37:36.167Z,0.63
2023-03-04T13:40:37.099Z,0.30
2023-03-04T13:43:28.990Z,0.63
2023-03-04T13:45:58.728Z,0.32
2023-03-04T13:48:33.672Z,0.75
2023-03-04T13:51:04.283Z,1.25
2023-03-04T13:53:42.171Z,0.80
2023-03-04T13:56:35.873Z,0.32
2023-03-04T13:59:29.284Z,0.22
2023-03-04T14:02:01.995Z,0.55
2023-03-04T14:04:35.233Z,0.43
2023-03-04T14:07:20.341Z,0.47
2023-03-04T14:10:00.397Z,0.93
2023-03-04T14:12:32.341Z,0.57
2023-03-04T14:15:04.722Z,0.63
2023-03-04T14:17:37.348Z,0.52
2023-03-04T14:20:22.699Z,0.70
2023-03-04T14:22:53.117Z,0.50
2023-03-04T14:25:26.650Z,0.82
2023-03-04T14:28:05.831Z,0.70
2023-03-04T14:30:42.639Z,0.45
2023-03-04T14:33:19.632Z,0.63
2023-03-04T14:35:50.788Z,0.40
2023-03-04T14:38:25.955Z,0.60
2023-03-04T14:41:03.754Z,0.82
2023-03-04T14:43:38.147Z,0.65
2023-03-04T14:46:12.737Z,0.68
2023-03-04T14:48:50.143Z,1.13
2023-03-04T14:51:41.854Z,0.82
2023-03-04T14:54:33.090Z,0.90
2023-03-04T14:57:24.156Z,1.25
2023-03-04T14:59:54.592Z,0.85
2023-03-04T15:02:31.617Z,0.82
2023-03-04T15:05:16.488Z,0.98
2023-03-04T15:07:54.204Z,1.13
2023-03-04T15:10:26.929Z,0.73
2023-03-04T15:13:01.941Z,1.02
2023-03-04T15:15:49.664Z,0.70
2023-03-04T15:18:26.518Z,1.27
2023-03-04T15:20:58.026Z,0.80
2023-03-04T15:26:00.615Z,1.58
2023-03-04T15:28:35.632Z,1.13
2023-03-04T15:31:05.557Z,1.17
2023-03-04T15:33:35.581Z,0.80
2023-03-04T15:36:06.018Z,0.60
2023-03-04T15:38:35.765Z,0.68
2023-03-04T15:41:06.511Z,0.75
2023-03-04T15:43:37.374Z,0.60
2023-03-04T15:46:07.533Z,0.95
2023-03-04T15:48:37.012Z,0.77
2023-03-04T15:51:15.553Z,0.70
2023-03-04T15:53:48.535Z,2.53
2023-03-04T15:56:20.925Z,0.88
2023-03-04T15:58:55.766Z,0.80
2023-03-04T16:01:26.485Z,0.82
2023-03-04T16:03:56.275Z,1.33
2023-03-04T16:06:30.574Z,0.73
2023-03-04T16:09:01.487Z,0.90
2023-03-04T16:11:44.673Z,0.93
2023-03-04T16:14:19.145Z,1.10
2023-03-04T16:16:50.741Z,1.88
2023-03-04T16:19:20.049Z,1.13
2023-03-04T16:21:50.137Z,1.75
2023-03-04T16:24:22.231Z,1.40
2023-03-04T16:26:53.069Z,2.25
2023-03-04T16:29:23.869Z,2.00
2023-03-04T16:31:56.302Z,2.08
2023-03-04T16:34:25.881Z,2.05
2023-03-04T16:36:55.537Z,1.73
2023-03-04T16:39:27.073Z,2.42
2023-03-04T16:41:56.947Z,2.00
2023-03-04T16:44:27.906Z,2.40
2023-03-04T16:46:57.551Z,1.38
2023-03-04T16:49:28.698Z,1.30
2023-03-04T16:51:58.454Z,1.75
2023-03-04T16:54:31.991Z,1.30
2023-03-04T16:57:02.052Z,1.05
2023-03-04T16:59:34.458Z,1.40
2023-03-04T17:02:04.245Z,1.58
2023-03-04T17:04:33.890Z,1.92
2023-03-04T17:07:03.749Z,3.03
2023-03-04T17:09:33.069Z,1.70
2023-03-04T17:12:02.741Z,2.15
2023-03-04T17:14:33.537Z,1.83
2023-03-04T17:17:04.962Z,2.00
2023-03-04T17:19:34.581Z,1.85
2023-03-04T17:22:05.265Z,3.15
2023-03-04T17:24:34.598Z,2.08
2023-03-04T17:27:04.557Z,2.00
2023-03-04T17:29:35.360Z,1.77
2023-03-04T17:32:05.138Z,2.17
2023-03-04T17:34:34.642Z,2.67
2023-03-04T17:37:04.459Z,2.38
2023-03-04T17:39:34.485Z,3.28
2023-03-04T17:42:04.831Z,2.38
2023-03-04T17:44:35.611Z,3.40
2023-03-04T17:47:05.889Z,2.60
2023-03-04T17:49:35.273Z,3.67
2023-03-04T17:52:06.091Z,3.47
2023-03-04T17:54:36.823Z,2.65
2023-03-04T17:57:07.195Z,3.15
2023-03-04T17:59:38.673Z,3.50
2023-03-04T18:02:08.279Z,3.53
2023-03-04T18:04:38.401Z,3.30
2023-03-04T18:07:08.690Z,3.58
2023-03-04T18:09:38.377Z,3.25
2023-03-04T18:12:08.326Z,2.72
2023-03-04T18:14:40.294Z,2.80
2023-03-04T18:17:09.689Z,3.38
2023-03-04T18:19:39.471Z,3.88
2023-03-04T18:22:09.391Z,2.70
2023-03-04T18:24:41.429Z,2.58
2023-03-04T18:27:10.981Z,2.83
2023-03-04T18:29:42.118Z,3.13
2023-03-04T18:32:11.574Z,2.20
2023-03-04T18:34:41.900Z,2.25
2023-03-04T18:37:11.794Z,3.20
2023-03-04T18:39:42.742Z,3.72
2023-03-04T18:42:12.900Z,2.47
2023-03-04T18:44:45.401Z,5.00
2023-03-04T18:47:15.518Z,3.60
2023-03-04T18:49:47.675Z,3.08
2023-03-04T18:52:17.618Z,3.00
2023-03-04T18:54:47.381Z,3.08
2023-03-04T18:57:17.245Z,2.95
2023-03-04T18:59:51.847Z,3.30
2023-03-04T19:02:26.564Z,2.70
2023-03-04T19:04:59.428Z,3.63
2023-03-04T19:07:28.839Z,4.47
2023-03-04T19:09:59.184Z,4.20
2023-03-04T19:12:28.654Z,3.08
2023-03-04T19:14:59.810Z,2.78
2023-03-04T19:17:32.887Z,3.45
2023-03-04T19:20:03.278Z,3.95
2023-03-04T19:22:32.574Z,3.90
2023-03-04T19:25:02.420Z,3.55
2023-03-04T19:27:32.754Z,4.22
2023-03-04T19:30:04.077Z,3.75
2023-03-04T19:32:33.601Z,3.15
2023-03-04T19:35:03.378Z,4.30
2023-03-04T19:37:32.766Z,3.40
2023-03-04T19:40:02.473Z,3.30
2023-03-04T19:42:31.827Z,3.63
2023-03-04T19:45:09.556Z,3.08
2023-03-04T19:47:39.500Z,3.75
2023-03-04T19:50:14.914Z,3.78
2023-03-04T19:52:44.656Z,3.85
2023-03-04T19:55:14.384Z,4.95
2023-03-04T19:57:43.839Z,4.63
2023-03-04T20:00:16.262Z,3.58
2023-03-04T20:02:48.100Z,2.90
2023-03-04T20:05:18.201Z,3.15
2023-03-04T20:07:47.602Z,4.05
2023-03-04T20:10:19.171Z,3.15
2023-03-04T20:12:48.694Z,3.67
2023-03-04T20:15:20.097Z,3.08
2023-03-04T20:20:19.236Z,3.20
2023-03-04T20:22:48.610Z,4.00
2023-03-04T20:25:18.456Z,2.83
2023-03-04T20:27:47.838Z,2.80
2023-03-04T20:30:19.865Z,3.63
2023-03-04T20:32:50.330Z,2.72
2023-03-04T20:35:20.055Z,3.25
2023-03-04T20:37:49.838Z,3.35
2023-03-04T20:40:20.072Z,3.72
2023-03-04T20:42:49.726Z,3.40
2023-03-04T20:45:22.350Z,2.85
2023-03-04T20:47:52.059Z,4.03
2023-03-04T20:50:22.550Z,3.63
2023-03-04T20:52:52.045Z,4.75
2023-03-04T20:55:22.462Z,4.03
2023-03-04T20:57:52.116Z,5.18
2023-03-04T21:00:23.942Z,4.68
2023-03-04T21:02:53.266Z,3.50
2023-03-04T21:05:22.945Z,3.63
2023-03-04T21:07:52.373Z,3.40
2023-03-04T21:10:23.402Z,4.63
2023-03-04T21:12:52.918Z,3.97
2023-03-04T21:15:24.241Z,4.07
2023-03-04T21:17:53.912Z,5.28
2023-03-04T21:20:24.003Z,3.38
2023-03-04T21:22:53.672Z,4.00
2023-03-04T21:25:26.620Z,4.03
2023-03-04T21:27:56.277Z,5.13
2023-03-04T21:30:27.936Z,5.25
2023-03-04T21:32:57.356Z,4.28
2023-03-04T21:35:27.155Z,4.25
2023-03-04T21:37:56.510Z,4.10
2023-03-04T21:40:26.718Z,5.05
2023-03-04T21:42:56.334Z,4.38
2023-03-04T21:45:27.984Z,3.15
2023-03-04T21:47:57.344Z,3.90
2023-03-04T21:50:27.240Z,5.20
2023-03-04T21:52:56.590Z,3.67
2023-03-04T21:55:26.395Z,5.07
2023-03-04T21:57:56.141Z,3.88
2023-03-04T22:00:27.898Z,4.45
2023-03-04T22:02:57.227Z,5.30
2023-03-04T22:05:27.087Z,4.72
2023-03-04T22:07:56.508Z,4.57
2023-03-04T22:10:26.204Z,3.88
2023-03-04T22:12:55.670Z,4.13
2023-03-04T22:15:26.831Z,4.47
2023-03-04T22:17:56.128Z,3.53
2023-03-04T22:20:26.161Z,3.60
2023-03-04T22:22:55.587Z,3.22
2023-03-04T22:25:25.338Z,3.92
2023-03-04T22:27:54.756Z,3.53
2023-03-04T22:30:24.725Z,3.47
2023-03-04T22:32:55.592Z,4.03
2023-03-04T22:35:26.065Z,3.35
2023-03-04T22:37:55.743Z,4.85
2023-03-04T22:40:26.151Z,2.80
2023-03-04T22:42:55.651Z,3.63
2023-03-04T22:45:28.168Z,2.63
2023-03-04T22:47:59.085Z,3.88
2023-03-04T22:50:28.921Z,3.35
2023-03-04T22:52:58.404Z,3.50
2023-03-04T22:55:28.133Z,2.58
2023-03-04T22:57:57.431Z,3.50
2023-03-04T23:00:29.069Z,2.63
2023-03-04T23:03:00.378Z,3.40
2023-03-04T23:05:30.473Z,3.20
2023-03-04T23:07:59.972Z,3.22
2023-03-04T23:10:30.056Z,3.80
2023-03-04T23:13:01.334Z,3.45
2023-03-04T23:15:31.130Z,4.03
2023-03-04T23:18:02.054Z,3.65
2023-03-04T23:20:31.788Z,3.35
2023-03-04T23:23:01.113Z,4.35
2023-03-04T23:25:30.809Z,3.30
2023-03-04T23:28:00.269Z,3.28
2023-03-04T23:30:30.176Z,3.47
2023-03-04T23:33:01.016Z,3.30
2023-03-04T23:35:31.598Z,3.40
2023-03-04T23:38:01.051Z,2.70
2023-03-04T23:40:31.379Z,3.00
2023-03-04T23:43:00.823Z,2.50
2023-03-04T23:45:30.796Z,3.05
2023-03-04T23:48:01.680Z,2.50
2023-03-04T23:50:32.427Z,2.88
2023-03-04T23:53:02.095Z,3.13
2023-03-04T23:55:34.546Z,2.97
2023-03-04T23:58:03.832Z,3.00
